Dades meteomassalio
Diari Summary for Marc 15, 2017 Units:  Metric    English   Both
« Previous Day
Next Day »
Diari Semanal Mensual Anual Personalitzat
  Maxima: Minima: Mijana:
Temperatura: 19.2 °C 4.3 °C 11.6 °C
Rosada: 9.9 °C 3.3 °C 7.1 °C
Humitat: 94 % 48 % 76 %
Velocitat del vent: 16.1 km/h 0.0 km/h 2.3 km/h
Racha vent: 16.1 km/h - -
Vent:- - SSE
Pressio: 1030.0 hPa 1024.6 hPa -
Pluja: 0.5 mm    
Historical Graphs
 
 
Tabular Data for Marc 15, 2017
Time Temperature Dew Point Pressure Wind Wind Speed Wind Gust Humidity Rainfall Rate (Hourly) solar Conditions
00:00 9.8 °C 7.9 °C 1029.7 hPa WSW 6.4 km/h 6.4 km/h 88 % 0.0 mm 0.0 W/m2 RA
00:05 9.8 °C 7.9 °C 1029.7 hPa SW 7.4 km/h 7.4 km/h 88 % 0.0 mm 0.0 W/m2 CLR
00:10 9.8 °C 7.9 °C 1029.7 hPa SW 7.4 km/h 7.4 km/h 88 % 0.0 mm 0.0 W/m2 CLR
00:15 9.9 °C 8.0 °C 1029.7 hPa SW 5.6 km/h 5.6 km/h 88 % 0.0 mm 0.0 W/m2 CLR
00:20 9.8 °C 7.9 °C 1029.7 hPa SW 5.6 km/h 5.6 km/h 88 % 0.0 mm 0.0 W/m2 CLR
00:25 9.9 °C 8.2 °C 1029.3 hPa WSW 7.4 km/h 7.4 km/h 89 % 0.0 mm 0.0 W/m2 CLR
00:30 9.9 °C 8.0 °C 1029.3 hPa SW 5.6 km/h   88 % 0.0 mm 0.0 W/m2 CLR
00:35 9.8 °C 7.9 °C 1029.7 hPa Calm     88 % 0.0 mm 0.0 W/m2 CLR
00:40 9.6 °C 7.5 °C 1029.7 hPa Calm     87 % 0.0 mm 0.0 W/m2 CLR
00:45 9.3 °C 7.4 °C 1029.7 hPa Calm     88 % 0.0 mm 0.0 W/m2 CLR
00:50 9.2 °C 7.5 °C 1029.7 hPa SSW 5.6 km/h   89 % 0.0 mm 0.0 W/m2 CLR
00:55 9.2 °C 7.4 °C 1029.7 hPa Calm     89 % 0.0 mm 0.0 W/m2 CLR
01:00 9.1 °C 7.4 °C 1029.7 hPa Calm     89 % 0.0 mm 0.0 W/m2 CLR
01:05 9.1 °C 7.3 °C 1029.7 hPa Calm     89 % 0.0 mm 0.0 W/m2 CLR
01:10 9.0 °C 7.3 °C 1029.7 hPa Calm     89 % 0.0 mm 0.0 W/m2 CLR
01:16 8.9 °C 7.4 °C 1029.7 hPa Calm     90 % 0.0 mm 0.0 W/m2 CLR
01:21 8.8 °C 7.1 °C 1029.7 hPa Calm     89 % 0.0 mm 0.0 W/m2 CLR
01:26 8.8 °C 7.2 °C 1029.7 hPa Calm     90 % 0.0 mm 0.0 W/m2 CLR
01:31 8.7 °C 7.1 °C 1029.7 hPa Calm     90 % 0.0 mm 0.0 W/m2 CLR
01:36 8.6 °C 7.1 °C 1029.7 hPa Calm     90 % 0.0 mm 0.0 W/m2 CLR
01:41 8.5 °C 6.9 °C 1029.7 hPa Calm     90 % 0.0 mm 0.0 W/m2 CLR
01:46 8.4 °C 6.8 °C 1029.7 hPa Calm     90 % 0.0 mm 0.0 W/m2 CLR
01:51 8.2 °C 6.7 °C 1029.7 hPa Calm     90 % 0.0 mm 0.0 W/m2 CLR
01:56 8.1 °C 6.7 °C 1029.7 hPa Calm     91 % 0.0 mm 0.0 W/m2 CLR
02:01 8.1 °C 6.7 °C 1029.7 hPa Calm     91 % 0.0 mm 0.0 W/m2 CLR
02:06 7.9 °C 6.5 °C 1029.7 hPa Calm     91 % 0.0 mm 0.0 W/m2 CLR
02:11 7.8 °C 6.4 °C 1029.7 hPa Calm     91 % 0.0 mm 0.0 W/m2 CLR
02:16 7.7 °C 6.3 °C 1029.7 hPa Calm     91 % 0.0 mm 0.0 W/m2 CLR
02:21 7.6 °C 6.2 °C 1029.7 hPa Calm     91 % 0.0 mm 0.0 W/m2 CLR
02:26 7.5 °C 6.1 °C 1029.7 hPa Calm     91 % 0.0 mm 0.0 W/m2 CLR
02:31 7.5 °C 6.1 °C 1029.7 hPa Calm     91 % 0.0 mm 0.0 W/m2 CLR
02:36 7.4 °C 6.0 °C 1029.7 hPa Calm     91 % 0.0 mm 0.0 W/m2 CLR
02:41 7.3 °C 6.1 °C 1029.7 hPa Calm     92 % 0.0 mm 0.0 W/m2 CLR
02:46 7.3 °C 6.1 °C 1029.7 hPa Calm     92 % 0.0 mm 0.0 W/m2 CLR
02:51 7.1 °C 5.7 °C 1029.3 hPa Calm     91 % 0.0 mm 0.0 W/m2 CLR
02:56 7.0 °C 5.8 °C 1029.3 hPa Calm     92 % 0.0 mm 0.0 W/m2 CLR
03:01 6.8 °C 5.4 °C 1029.7 hPa Calm     91 % 0.0 mm 0.0 W/m2 CLR
03:06 6.8 °C 5.6 °C 1029.7 hPa Calm     92 % 0.0 mm 0.0 W/m2 CLR
03:11 6.7 °C 5.5 °C 1029.7 hPa Calm     92 % 0.0 mm 0.0 W/m2 CLR
03:16 6.6 °C 5.4 °C 1029.7 hPa Calm     92 % 0.0 mm 0.0 W/m2 CLR
03:21 6.6 °C 5.3 °C 1029.7 hPa Calm     92 % 0.0 mm 0.0 W/m2 CLR
03:26 6.4 °C 5.2 °C 1029.7 hPa Calm     92 % 0.0 mm 0.0 W/m2 CLR
03:31 6.3 °C 5.1 °C 1029.7 hPa Calm     92 % 0.0 mm 0.0 W/m2 CLR
03:36 6.2 °C 5.0 °C 1029.7 hPa Calm     92 % 0.0 mm 0.0 W/m2 CLR
03:41 6.3 °C 5.1 °C 1029.7 hPa Calm     92 % 0.0 mm 0.0 W/m2 CLR
03:46 6.3 °C 5.1 °C 1029.3 hPa Calm     92 % 0.0 mm 0.0 W/m2 CLR
03:51 6.2 °C 5.0 °C 1029.3 hPa Calm     92 % 0.0 mm 0.0 W/m2 CLR
03:56 6.1 °C 4.9 °C 1029.3 hPa Calm     92 % 0.0 mm 0.0 W/m2 CLR
04:01 6.1 °C 4.8 °C 1029.3 hPa Calm     92 % 0.0 mm 0.0 W/m2 CLR
04:06 5.9 °C 4.7 °C 1029.3 hPa Calm     92 % 0.0 mm 0.0 W/m2 CLR
04:11 5.8 °C 4.6 °C 1029.7 hPa Calm     92 % 0.0 mm 0.0 W/m2 CLR
04:16 5.7 °C 4.5 °C 1029.7 hPa Calm     92 % 0.0 mm 0.0 W/m2 CLR
04:21 5.7 °C 4.4 °C 1029.7 hPa Calm     92 % 0.0 mm 0.0 W/m2 CLR
04:26 5.7 °C 4.6 °C 1029.7 hPa Calm     93 % 0.0 mm 0.0 W/m2 CLR
04:31 5.6 °C 4.4 °C 1029.7 hPa Calm     92 % 0.0 mm 0.0 W/m2 CLR
04:36 5.5 °C 4.4 °C 1029.3 hPa Calm     93 % 0.0 mm 0.0 W/m2 CLR
04:41 5.5 °C 4.4 °C 1029.3 hPa Calm     93 % 0.0 mm 0.0 W/m2 CLR
04:46 5.5 °C 4.4 °C 1029.3 hPa Calm     93 % 0.0 mm 0.0 W/m2 CLR
04:51 5.4 °C 4.4 °C 1029.3 hPa Calm     93 % 0.0 mm 0.0 W/m2 CLR
04:56 5.4 °C 4.3 °C 1029.3 hPa Calm     93 % 0.0 mm 0.0 W/m2 CLR
05:01 5.4 °C 4.4 °C 1029.3 hPa Calm     93 % 0.0 mm 0.0 W/m2 CLR
05:06 5.4 °C 4.3 °C 1029.3 hPa Calm     93 % 0.0 mm 0.0 W/m2 CLR
05:11 5.4 °C 4.4 °C 1029.3 hPa Calm     93 % 0.0 mm 0.0 W/m2 CLR
05:16 5.4 °C 4.3 °C 1029.3 hPa Calm     93 % 0.0 mm 0.0 W/m2 CLR
05:21 5.3 °C 4.3 °C 1029.3 hPa Calm     93 % 0.0 mm 0.0 W/m2 CLR
05:26 5.3 °C 4.3 °C 1029.3 hPa Calm     93 % 0.0 mm 0.0 W/m2 CLR
05:31 5.2 °C 4.1 °C 1029.3 hPa Calm     93 % 0.0 mm 0.0 W/m2 CLR
05:36 5.2 °C 4.1 °C 1029.3 hPa Calm     93 % 0.0 mm 0.0 W/m2 CLR
05:41 5.1 °C 4.1 °C 1029.3 hPa Calm     93 % 0.0 mm 0.0 W/m2 CLR
05:46 5.1 °C 4.1 °C 1029.3 hPa Calm     93 % 0.0 mm 0.0 W/m2 CLR
05:51 5.1 °C 4.1 °C 1029.3 hPa Calm     93 % 0.0 mm 0.0 W/m2 CLR
05:56 5.1 °C 4.1 °C 1029.3 hPa Calm     93 % 0.0 mm 0.0 W/m2 CLR
06:01 4.9 °C 3.8 °C 1029.3 hPa Calm     93 % 0.0 mm 0.0 W/m2 CLR
06:06 4.8 °C 3.8 °C 1029.3 hPa Calm     93 % 0.0 mm 0.0 W/m2 CLR
06:11 4.8 °C 3.7 °C 1029.3 hPa Calm     93 % 0.0 mm 0.0 W/m2 CLR
06:16 4.7 °C 3.7 °C 1029.0 hPa Calm     93 % 0.0 mm 0.0 W/m2 CLR
06:21 4.8 °C 3.7 °C 1029.3 hPa Calm     93 % 0.0 mm 0.0 W/m2 CLR
06:26 4.8 °C 3.8 °C 1029.3 hPa Calm     93 % 0.0 mm 0.0 W/m2 CLR
06:31 4.8 °C 3.8 °C 1029.3 hPa Calm     93 % 0.0 mm 0.0 W/m2 CLR
06:36 4.9 °C 3.8 °C 1029.3 hPa Calm     93 % 0.0 mm 0.0 W/m2 CLR
06:41 4.8 °C 3.8 °C 1029.3 hPa Calm     93 % 0.0 mm 0.0 W/m2 CLR
06:46 4.8 °C 3.7 °C 1029.3 hPa Calm     93 % 0.0 mm 0.0 W/m2 CLR
06:51 4.7 °C 3.7 °C 1029.3 hPa Calm     93 % 0.0 mm 0.0 W/m2 CLR
06:56 4.7 °C 3.7 °C 1029.7 hPa Calm     93 % 0.0 mm 0.0 W/m2 CLR
07:01 4.6 °C 3.6 °C 1029.7 hPa Calm     93 % 0.0 mm 0.0 W/m2 OVC
07:06 4.5 °C 3.4 °C 1029.7 hPa Calm     93 % 0.0 mm 0.0 W/m2 OVC
07:11 4.4 °C 3.3 °C 1029.7 hPa Calm     93 % 0.0 mm 5.0 W/m2 OVC
07:16 4.4 °C 3.3 °C 1029.7 hPa Calm     93 % 0.0 mm 7.0 W/m2 BKN
07:21 4.4 °C 3.3 °C 1029.7 hPa Calm     93 % 0.0 mm 11.0 W/m2 BKN
07:26 4.4 °C 3.4 °C 1029.7 hPa Calm     93 % 0.0 mm 16.0 W/m2 BKN
07:31 4.4 °C 3.4 °C 1029.7 hPa Calm     93 % 0.0 mm 19.0 W/m2 BKN
07:36 4.4 °C 3.3 °C 1030.0 hPa Calm     93 % 0.5 mm 25.0 W/m2 RA
07:41 4.3 °C 3.3 °C 1030.0 hPa Calm     93 % 0.5 mm 35.0 W/m2 BKN
07:46 4.4 °C 3.3 °C 1030.0 hPa Calm     93 % 0.5 mm 44.0 W/m2 BKN
07:51 4.4 °C 3.3 °C 1030.0 hPa Calm     93 % 0.5 mm 54.0 W/m2 SCT
07:56 4.4 °C 3.4 °C 1030.0 hPa Calm     93 % 0.5 mm 65.0 W/m2 SCT
08:01 4.6 °C 3.5 °C 1030.0 hPa Calm     93 % 0.5 mm 79.0 W/m2 FEW
08:06 4.7 °C 3.7 °C 1030.0 hPa Calm     93 % 0.5 mm 86.0 W/m2 FEW
08:11 4.9 °C 3.8 °C 1030.0 hPa Calm     93 % 0.5 mm 104.0 W/m2 CLR
08:16 5.1 °C 4.0 °C 1030.0 hPa Calm     93 % 0.5 mm 107.0 W/m2 CLR
08:21 5.2 °C 4.2 °C 1030.0 hPa Calm     93 % 0.5 mm 118.0 W/m2 CLR
08:26 5.4 °C 4.6 °C 1030.0 hPa Calm     94 % 0.5 mm 156.0 W/m2 CLR
08:31 5.7 °C 4.8 °C 1030.0 hPa Calm     94 % 0.5 mm 171.0 W/m2 CLR
08:36 6.0 °C 5.1 °C 1030.0 hPa Calm     94 % 0.0 mm 188.0 W/m2 CLR
08:41 6.4 °C 5.5 °C 1030.0 hPa Calm     94 % 0.0 mm 207.0 W/m2 CLR
08:46 6.8 °C 5.9 °C 1030.0 hPa Calm     94 % 0.0 mm 229.0 W/m2 CLR
08:51 7.2 °C 6.1 °C 1030.0 hPa Calm     93 % 0.0 mm 243.0 W/m2 CLR
08:56 7.6 °C 6.5 °C 1030.0 hPa Calm     93 % 0.0 mm 257.0 W/m2 CLR
09:01 7.9 °C 6.9 °C 1030.0 hPa Calm     93 % 0.0 mm 269.0 W/m2 CLR
09:06 8.3 °C 7.1 °C 1030.0 hPa Calm     92 % 0.0 mm 287.0 W/m2 CLR
09:12 8.6 °C 7.2 °C 1030.0 hPa Calm     91 % 0.0 mm 301.0 W/m2 CLR
09:17 8.9 °C 7.5 °C 1030.0 hPa Calm     91 % 0.0 mm 313.0 W/m2 CLR
09:22 9.3 °C 7.8 °C 1030.0 hPa Calm     90 % 0.0 mm 325.0 W/m2 CLR
09:27 9.9 °C 8.3 °C 1030.0 hPa Calm     90 % 0.0 mm 345.0 W/m2 CLR
09:32 10.4 °C 8.5 °C 1029.7 hPa Calm     88 % 0.0 mm 359.0 W/m2 CLR
09:37 10.8 °C 8.6 °C 1029.7 hPa West 11.3 km/h 11.3 km/h 86 % 0.0 mm 371.0 W/m2 CLR
09:42 11.1 °C 7.9 °C 1029.7 hPa NW 7.4 km/h 7.4 km/h 81 % 0.0 mm 383.0 W/m2 CLR
09:47 11.2 °C 7.7 °C 1029.7 hPa NNW 13.0 km/h 13.0 km/h 79 % 0.0 mm 394.0 W/m2 CLR
09:52 11.4 °C 7.9 °C 1029.7 hPa WNW 14.8 km/h 14.8 km/h 79 % 0.0 mm 410.0 W/m2 CLR
09:57 11.6 °C 7.8 °C 1029.7 hPa WNW 9.7 km/h 9.7 km/h 78 % 0.0 mm 424.0 W/m2 CLR
10:02 11.6 °C 7.5 °C 1029.7 hPa West 12.9 km/h 12.9 km/h 76 % 0.0 mm 436.0 W/m2 CLR
10:07 11.7 °C 7.4 °C 1029.7 hPa WNW 13.0 km/h 13.0 km/h 75 % 0.0 mm 452.0 W/m2 CLR
10:12 11.8 °C 7.5 °C 1029.7 hPa West 13.0 km/h 13.0 km/h 75 % 0.0 mm 468.0 W/m2 CLR
10:17 11.9 °C 8.1 °C 1029.3 hPa NW 13.0 km/h 13.0 km/h 77 % 0.0 mm 482.0 W/m2 CLR
10:22 12.1 °C 7.8 °C 1029.3 hPa West 11.3 km/h 11.3 km/h 75 % 0.0 mm 492.0 W/m2 CLR
10:27 12.2 °C 7.5 °C 1029.3 hPa West 9.3 km/h 9.3 km/h 73 % 0.0 mm 504.0 W/m2 CLR
10:32 12.4 °C 7.7 °C 1029.3 hPa Calm     73 % 0.0 mm 519.0 W/m2 CLR
10:37 12.5 °C 7.8 °C 1029.3 hPa WNW 7.4 km/h 7.4 km/h 73 % 0.0 mm 531.0 W/m2 CLR
10:42 12.8 °C 8.3 °C 1029.3 hPa NW 1.6 km/h   74 % 0.0 mm 541.0 W/m2 CLR
10:47 12.9 °C 8.2 °C 1029.3 hPa WNW 13.0 km/h 13.0 km/h 73 % 0.0 mm 554.0 W/m2 CLR
10:52 13.1 °C 8.2 °C 1029.3 hPa Calm     72 % 0.0 mm 564.0 W/m2 CLR
10:57 13.2 °C 7.9 °C 1029.3 hPa WSW 5.6 km/h 5.6 km/h 70 % 0.0 mm 575.0 W/m2 CLR
11:02 13.6 °C 9.0 °C 1029.0 hPa NNW 11.1 km/h 11.1 km/h 74 % 0.0 mm 585.0 W/m2 CLR
11:07 13.6 °C 7.8 °C 1029.0 hPa WSW 1.9 km/h   68 % 0.0 mm 594.0 W/m2 CLR
11:12 13.7 °C 8.3 °C 1029.0 hPa West 7.4 km/h 7.4 km/h 70 % 0.0 mm 605.0 W/m2 CLR
11:17 13.9 °C 8.5 °C 1029.0 hPa North 7.4 km/h 7.4 km/h 70 % 0.0 mm 619.0 W/m2 CLR
11:22 14.0 °C 8.2 °C 1029.0 hPa WSW 11.1 km/h 11.1 km/h 68 % 0.0 mm 629.0 W/m2 CLR
11:27 14.1 °C 8.0 °C 1029.0 hPa Calm     67 % 0.0 mm 633.0 W/m2 CLR
11:32 14.3 °C 8.5 °C 1028.7 hPa Calm     68 % 0.0 mm 643.0 W/m2 CLR
11:37 14.5 °C 8.4 °C 1028.7 hPa NW 9.3 km/h 9.3 km/h 67 % 0.0 mm 654.0 W/m2 CLR
11:42 14.5 °C 8.7 °C 1028.7 hPa Calm     68 % 0.0 mm 659.0 W/m2 CLR
11:47 14.7 °C 8.4 °C 1028.7 hPa Calm     66 % 0.0 mm 668.0 W/m2 CLR
11:52 15.2 °C 9.3 °C 1028.7 hPa NNW 11.1 km/h 11.1 km/h 68 % 0.0 mm 677.0 W/m2 CLR
11:57 15.2 °C 8.9 °C 1028.3 hPa WNW 9.3 km/h 9.3 km/h 66 % 0.0 mm 680.0 W/m2 CLR
12:02 15.3 °C 8.8 °C 1028.3 hPa Calm     65 % 0.0 mm 684.0 W/m2 CLR
12:07 15.4 °C 8.4 °C 1028.3 hPa Calm     63 % 0.0 mm 691.0 W/m2 CLR
12:12 15.5 °C 8.9 °C 1028.3 hPa WNW 6.4 km/h 6.4 km/h 65 % 0.0 mm 698.0 W/m2 CLR
12:17 15.6 °C 8.8 °C 1028.0 hPa Calm     64 % 0.0 mm 703.0 W/m2 CLR
12:22 15.6 °C 8.8 °C 1028.0 hPa West 9.3 km/h 9.3 km/h 64 % 0.0 mm 703.0 W/m2 CLR
12:27 15.7 °C 9.2 °C 1028.0 hPa NW 3.7 km/h   65 % 0.0 mm 708.0 W/m2 CLR
12:32 15.8 °C 8.8 °C 1027.7 hPa Calm     63 % 0.0 mm 714.0 W/m2 CLR
12:37 16.0 °C 8.7 °C 1028.0 hPa Calm     62 % 0.0 mm 721.0 W/m2 CLR
12:42 16.3 °C 9.3 °C 1027.7 hPa Calm     63 % 0.0 mm 724.0 W/m2 CLR
12:47 16.6 °C 9.2 °C 1027.7 hPa Calm     62 % 0.0 mm 724.0 W/m2 CLR
12:52 16.9 °C 9.3 °C 1027.7 hPa Calm     61 % 0.0 mm 726.0 W/m2 CLR
12:57 17.0 °C 8.7 °C 1027.7 hPa Calm     58 % 0.0 mm 731.0 W/m2 CLR
13:02 17.2 °C 8.8 °C 1027.7 hPa Calm     58 % 0.0 mm 733.0 W/m2 CLR
13:07 17.1 °C 9.1 °C 1027.3 hPa Calm     59 % 0.0 mm 701.0 W/m2 CLR
13:12 17.3 °C 9.2 °C 1027.3 hPa ENE 1.9 km/h 1.9 km/h 59 % 0.0 mm 659.0 W/m2 CLR
13:17 17.3 °C 9.2 °C 1027.3 hPa East 1.9 km/h   59 % 0.0 mm 726.0 W/m2 CLR
13:22 17.3 °C 9.2 °C 1027.3 hPa ENE 1.9 km/h 1.9 km/h 59 % 0.0 mm 729.0 W/m2 CLR
13:27 17.5 °C 9.7 °C 1027.0 hPa Calm     60 % 0.0 mm 733.0 W/m2 CLR
13:32 17.7 °C 8.8 °C 1027.0 hPa Calm     56 % 0.0 mm 737.0 W/m2 CLR
13:37 17.8 °C 8.9 °C 1027.0 hPa Calm     56 % 0.0 mm 728.0 W/m2 CLR
13:42 18.0 °C 9.3 °C 1027.0 hPa NNE 5.6 km/h   57 % 0.0 mm 726.0 W/m2 CLR
13:47 17.8 °C 9.7 °C 1026.6 hPa ENE 11.3 km/h 11.3 km/h 59 % 0.0 mm 722.0 W/m2 CLR
13:52 17.9 °C 9.5 °C 1026.6 hPa NE 7.4 km/h 7.4 km/h 58 % 0.0 mm 714.0 W/m2 CLR
13:57 18.0 °C 9.3 °C 1026.6 hPa NNE 7.4 km/h 7.4 km/h 57 % 0.0 mm 714.0 W/m2 CLR
14:02 18.0 °C 9.9 °C 1026.3 hPa NNE 9.3 km/h 9.3 km/h 59 % 0.0 mm 714.0 W/m2 CLR
14:07 17.9 °C 9.1 °C 1026.3 hPa Calm     56 % 0.0 mm 705.0 W/m2 CLR
14:12 18.2 °C 9.8 °C 1026.3 hPa NE 7.4 km/h 7.4 km/h 58 % 0.0 mm 705.0 W/m2 CLR
14:17 18.3 °C 8.8 °C 1026.3 hPa Calm     54 % 0.0 mm 701.0 W/m2 CLR
14:22 18.6 °C 9.1 °C 1026.0 hPa Calm     54 % 0.0 mm 696.0 W/m2 CLR
14:27 18.9 °C 9.1 °C 1026.0 hPa NNE 8.0 km/h 8.0 km/h 53 % 0.0 mm 687.0 W/m2 CLR
14:32 18.7 °C 8.9 °C 1026.0 hPa NE 8.0 km/h 8.0 km/h 53 % 0.0 mm 682.0 W/m2 CLR
14:37 18.7 °C 8.9 °C 1026.0 hPa ENE 13.0 km/h 13.0 km/h 53 % 0.0 mm 673.0 W/m2 CLR
14:42 18.6 °C 8.6 °C 1025.6 hPa East 7.4 km/h   52 % 0.0 mm 668.0 W/m2 CLR
14:47 18.7 °C 8.7 °C 1025.6 hPa ENE 5.6 km/h 5.6 km/h 52 % 0.0 mm 659.0 W/m2 CLR
14:52 18.9 °C 9.4 °C 1025.6 hPa Calm     54 % 0.0 mm 650.0 W/m2 CLR
14:57 19.0 °C 8.9 °C 1025.6 hPa NE 14.5 km/h 14.5 km/h 52 % 0.0 mm 642.0 W/m2 CLR
15:02 18.8 °C 8.5 °C 1025.6 hPa Calm     51 % 0.0 mm 638.0 W/m2 CLR
15:07 18.9 °C 8.8 °C 1025.6 hPa NE 13.0 km/h 13.0 km/h 52 % 0.0 mm 626.0 W/m2 CLR
15:12 19.1 °C 9.6 °C 1025.6 hPa NNE 7.4 km/h 7.4 km/h 54 % 0.0 mm 613.0 W/m2 CLR
15:17 19.1 °C 9.0 °C 1025.6 hPa Calm     52 % 0.0 mm 596.0 W/m2 CLR
15:22 19.2 °C 8.2 °C 1025.6 hPa East 14.8 km/h 14.8 km/h 49 % 0.0 mm 589.0 W/m2 CLR
15:27 18.7 °C 7.5 °C 1025.6 hPa ENE 5.6 km/h 5.6 km/h 48 % 0.0 mm 577.0 W/m2 CLR
15:32 18.8 °C 7.8 °C 1025.6 hPa Calm     49 % 0.0 mm 570.0 W/m2 CLR
15:37 19.1 °C 8.7 °C 1025.6 hPa ENE 9.3 km/h 9.3 km/h 51 % 0.0 mm 559.0 W/m2 CLR
15:38 19.1 °C 9.0 °C 1025.3 hPa ESE 6.4 km/h 6.4 km/h 52 % 0.0 mm 559.0 W/m2 CLR
15:43 19.1 °C 8.1 °C 1025.3 hPa ENE 16.1 km/h 16.1 km/h 49 % 0.0 mm 547.0 W/m2 CLR
15:48 18.8 °C 7.8 °C 1025.3 hPa ENE 7.4 km/h 7.4 km/h 49 % 0.0 mm 531.0 W/m2 CLR
15:53 18.8 °C 7.9 °C 1025.3 hPa ESE 11.1 km/h 11.1 km/h 49 % 0.0 mm 524.0 W/m2 CLR
15:58 18.7 °C 7.5 °C 1025.3 hPa East 13.0 km/h 13.0 km/h 48 % 0.0 mm 510.0 W/m2 CLR
16:03 18.7 °C 8.1 °C 1025.3 hPa East 6.4 km/h 6.4 km/h 50 % 0.0 mm 494.0 W/m2 CLR
16:08 18.8 °C 7.8 °C 1025.3 hPa ENE 13.0 km/h 13.0 km/h 49 % 0.0 mm 478.0 W/m2 CLR
16:13 18.9 °C 8.2 °C 1025.3 hPa ENE 5.6 km/h   50 % 0.0 mm 462.0 W/m2 CLR
16:18 19.1 °C 8.1 °C 1025.3 hPa East 13.0 km/h 13.0 km/h 49 % 0.0 mm 452.0 W/m2 CLR
16:23 19.1 °C 8.1 °C 1024.9 hPa East 7.4 km/h 7.6 km/h 49 % 0.0 mm 432.0 W/m2 CLR
16:28 19.0 °C 8.1 °C 1024.9 hPa East 11.1 km/h 11.1 km/h 49 % 0.0 mm 424.0 W/m2 CLR
16:33 19.1 °C 8.1 °C 1024.9 hPa Calm   1.0 km/h 49 % 0.0 mm 415.0 W/m2 CLR
16:38 19.0 °C 8.1 °C 1024.9 hPa East 13.0 km/h 13.0 km/h 49 % 0.0 mm 399.0 W/m2 CLR
16:43 18.9 °C 8.2 °C 1024.9 hPa NE 5.6 km/h 5.6 km/h 50 % 0.0 mm 385.0 W/m2 CLR
16:48 18.9 °C 7.9 °C 1024.9 hPa NE 5.6 km/h 5.6 km/h 49 % 0.0 mm 366.0 W/m2 CLR
16:53 19.0 °C 8.3 °C 1024.9 hPa ENE 7.4 km/h 7.4 km/h 50 % 0.0 mm 357.0 W/m2 CLR
16:58 19.0 °C 8.3 °C 1024.9 hPa ENE 9.3 km/h 9.3 km/h 50 % 0.0 mm 339.0 W/m2 CLR
17:03 19.0 °C 8.3 °C 1024.9 hPa Calm     50 % 0.0 mm 323.0 W/m2 CLR
17:08 19.1 °C 8.4 °C 1024.9 hPa NE 11.1 km/h 11.1 km/h 50 % 0.0 mm 306.0 W/m2 CLR
17:13 19.0 °C 8.3 °C 1024.9 hPa Calm     50 % 0.0 mm 290.0 W/m2 CLR
17:18 19.2 °C 8.5 °C 1024.6 hPa Calm     50 % 0.0 mm 274.0 W/m2 CLR
17:23 19.1 °C 8.1 °C 1024.6 hPa Calm   0.5 km/h 49 % 0.0 mm 260.0 W/m2 CLR
17:29 19.0 °C 8.3 °C 1024.6 hPa Calm     50 % 0.0 mm 246.0 W/m2 CLR
17:34 19.0 °C 8.3 °C 1024.6 hPa Calm     50 % 0.0 mm 227.0 W/m2 CLR
17:35 19.0 °C 8.3 °C 1024.6 hPa Calm     50 % 0.0 mm 223.0 W/m2 CLR
17:40 18.9 °C 8.8 °C 1024.6 hPa ENE 7.4 km/h   52 % 0.0 mm 204.0 W/m2 CLR
17:45 18.9 °C 8.5 °C 1024.6 hPa ENE 1.9 km/h 1.9 km/h 51 % 0.0 mm 186.0 W/m2 CLR
17:50 18.9 °C 8.2 °C 1024.6 hPa NE 8.0 km/h 8.0 km/h 50 % 0.0 mm 169.0 W/m2 CLR
17:55 18.8 °C 8.4 °C 1024.6 hPa Calm     51 % 0.0 mm 149.0 W/m2 CLR
18:00 18.7 °C 8.4 °C 1024.6 hPa NE 5.6 km/h   51 % 0.0 mm 134.0 W/m2 CLR
18:05 18.7 °C 8.6 °C 1024.6 hPa NNE 5.6 km/h 5.6 km/h 52 % 0.0 mm 116.0 W/m2 CLR
18:10 18.5 °C 8.4 °C 1024.6 hPa NE 7.4 km/h 7.4 km/h 52 % 0.0 mm 102.0 W/m2 CLR
18:15 18.4 °C 8.3 °C 1024.6 hPa Calm     52 % 0.0 mm 84.0 W/m2 CLR
18:20 18.2 °C 8.2 °C 1024.6 hPa NE 6.4 km/h 6.4 km/h 52 % 0.0 mm 63.0 W/m2 SCT
18:25 18.1 °C 8.4 °C 1024.6 hPa NE 7.4 km/h 7.4 km/h 53 % 0.0 mm 53.0 W/m2 SCT
18:30 18.0 °C 8.3 °C 1024.6 hPa Calm     53 % 0.0 mm 44.0 W/m2 SCT
18:35 17.9 °C 8.5 °C 1024.6 hPa Calm     54 % 0.0 mm 35.0 W/m2 BKN
18:40 17.9 °C 8.4 °C 1024.6 hPa Calm     54 % 0.0 mm 25.0 W/m2 BKN
18:45 17.8 °C 8.6 °C 1024.6 hPa Calm     55 % 0.0 mm 19.0 W/m2 BKN
18:50 17.6 °C 8.9 °C 1024.9 hPa Calm     57 % 0.0 mm 16.0 W/m2 BKN
18:55 17.3 °C 8.9 °C 1024.6 hPa Calm     58 % 0.0 mm 12.0 W/m2 BKN
19:00 16.8 °C 8.8 °C 1024.6 hPa Calm     59 % 0.0 mm 7.0 W/m2 BKN
19:05 16.3 °C 8.7 °C 1024.9 hPa Calm     61 % 0.0 mm 5.0 W/m2 OVC
19:10 15.9 °C 8.7 °C 1024.9 hPa Calm     62 % 0.0 mm 0.0 W/m2 OVC
19:15 15.7 °C 8.7 °C 1024.9 hPa Calm     63 % 0.0 mm 0.0 W/m2 OVC
19:20 15.5 °C 8.5 °C 1024.9 hPa Calm     63 % 0.0 mm 0.0 W/m2 CLR
19:25 15.3 °C 8.6 °C 1024.9 hPa Calm     64 % 0.0 mm 0.0 W/m2 CLR
19:30 15.2 °C 8.4 °C 1024.9 hPa Calm     64 % 0.0 mm 0.0 W/m2 CLR
19:35 15.0 °C 8.2 °C 1024.9 hPa Calm     64 % 0.0 mm 0.0 W/m2 CLR
19:40 14.9 °C 8.4 °C 1024.9 hPa Calm     65 % 0.0 mm 0.0 W/m2 CLR
19:45 14.8 °C 8.7 °C 1025.3 hPa Calm     67 % 0.0 mm 0.0 W/m2 CLR
19:50 14.6 °C 8.8 °C 1025.3 hPa Calm     68 % 0.0 mm 0.0 W/m2 CLR
19:55 14.4 °C 8.8 °C 1025.3 hPa Calm     69 % 0.0 mm 0.0 W/m2 CLR
19:57 14.3 °C 8.7 °C 1025.3 hPa Calm     69 % 0.0 mm 0.0 W/m2 CLR
20:02 13.9 °C 8.9 °C 1025.3 hPa Calm     72 % 0.0 mm 0.0 W/m2 CLR
20:07 13.6 °C 8.8 °C 1025.3 hPa Calm     73 % 0.0 mm 0.0 W/m2 CLR
20:12 13.1 °C 8.8 °C 1025.6 hPa Calm     75 % 0.0 mm 0.0 W/m2 CLR
20:17 12.8 °C 8.4 °C 1025.6 hPa Calm     75 % 0.0 mm 0.0 W/m2 CLR
20:22 12.6 °C 8.5 °C 1025.6 hPa Calm     76 % 0.0 mm 0.0 W/m2 CLR
20:27 12.4 °C 8.5 °C 1025.6 hPa Calm     77 % 0.0 mm 0.0 W/m2 CLR
20:32 12.3 °C 8.4 °C 1025.6 hPa Calm     77 % 0.0 mm 0.0 W/m2 CLR
20:37 12.2 °C 8.4 °C 1025.6 hPa Calm     78 % 0.0 mm 0.0 W/m2 CLR
20:42 12.0 °C 8.4 °C 1025.6 hPa Calm     79 % 0.0 mm 0.0 W/m2 CLR
20:47 11.8 °C 8.4 °C 1026.0 hPa Calm     80 % 0.0 mm 0.0 W/m2 CLR
20:52 11.6 °C 8.2 °C 1026.0 hPa Calm     80 % 0.0 mm 0.0 W/m2 CLR
20:57 11.3 °C 8.2 °C 1026.0 hPa Calm     81 % 0.0 mm 0.0 W/m2 CLR
21:02 11.1 °C 7.9 °C 1026.0 hPa Calm     81 % 0.0 mm 0.0 W/m2 CLR
21:07 10.9 °C 8.0 °C 1026.0 hPa Calm     82 % 0.0 mm 0.0 W/m2 CLR
21:12 10.7 °C 7.8 °C 1026.0 hPa Calm     82 % 0.0 mm 0.0 W/m2 CLR
21:17 10.6 °C 7.8 °C 1026.0 hPa Calm     83 % 0.0 mm 0.0 W/m2 CLR
21:22 10.4 °C 7.8 °C 1026.0 hPa Calm     84 % 0.0 mm 0.0 W/m2 CLR
21:27 10.2 °C 7.6 °C 1026.3 hPa Calm     84 % 0.0 mm 0.0 W/m2 CLR
21:32 10.1 °C 7.7 °C 1026.3 hPa Calm     85 % 0.0 mm 0.0 W/m2 CLR
21:37 10.0 °C 7.6 °C 1026.3 hPa Calm     85 % 0.0 mm 0.0 W/m2 CLR
21:42 9.9 °C 7.5 °C 1026.3 hPa Calm     85 % 0.0 mm 0.0 W/m2 CLR
21:47 9.8 °C 7.4 °C 1026.3 hPa Calm     85 % 0.0 mm 0.0 W/m2 CLR
21:52 9.7 °C 7.3 °C 1026.3 hPa Calm     85 % 0.0 mm 0.0 W/m2 CLR
21:57 9.6 °C 7.3 °C 1026.3 hPa Calm     86 % 0.0 mm 0.0 W/m2 CLR
22:02 9.4 °C 7.2 °C 1026.3 hPa Calm     86 % 0.0 mm 0.0 W/m2 CLR
22:07 9.3 °C 7.3 °C 1026.3 hPa Calm     87 % 0.0 mm 0.0 W/m2 CLR
22:12 9.2 °C 7.2 °C 1026.3 hPa Calm     87 % 0.0 mm 0.0 W/m2 CLR
22:17 9.1 °C 7.0 °C 1026.3 hPa Calm     87 % 0.0 mm 0.0 W/m2 CLR
22:22 9.0 °C 6.9 °C 1026.3 hPa Calm     87 % 0.0 mm 0.0 W/m2 CLR
22:27 8.8 °C 6.8 °C 1026.6 hPa Calm     87 % 0.0 mm 0.0 W/m2 CLR
22:32 8.7 °C 6.8 °C 1026.6 hPa Calm     88 % 0.0 mm 0.0 W/m2 CLR
22:37 8.6 °C 6.7 °C 1026.6 hPa Calm     88 % 0.0 mm 0.0 W/m2 CLR
22:42 8.6 °C 6.7 °C 1026.6 hPa Calm     88 % 0.0 mm 0.0 W/m2 CLR
22:47 8.4 °C 6.6 °C 1026.6 hPa Calm     88 % 0.0 mm 0.0 W/m2 CLR
22:53 8.3 °C 6.4 °C 1026.6 hPa Calm     88 % 0.0 mm 0.0 W/m2 CLR
22:58 8.2 °C 6.5 °C 1026.6 hPa Calm     89 % 0.0 mm 0.0 W/m2 CLR
23:03 8.1 °C 6.4 °C 1026.6 hPa Calm     89 % 0.0 mm 0.0 W/m2 CLR
23:08 8.1 °C 6.3 °C 1026.6 hPa Calm     89 % 0.0 mm 0.0 W/m2 CLR
23:13 8.0 °C 6.3 °C 1026.6 hPa Calm     89 % 0.0 mm 0.0 W/m2 CLR
23:18 7.9 °C 6.2 °C 1026.6 hPa Calm     89 % 0.0 mm 0.0 W/m2 CLR
23:23 7.8 °C 6.1 °C 1026.6 hPa Calm     89 % 0.0 mm 0.0 W/m2 CLR
23:28 7.7 °C 6.2 °C 1026.6 hPa Calm     90 % 0.0 mm 0.0 W/m2 CLR
23:33 7.7 °C 6.1 °C 1026.6 hPa Calm     90 % 0.0 mm 0.0 W/m2 CLR
23:38 7.6 °C 6.1 °C 1026.6 hPa Calm     90 % 0.0 mm 0.0 W/m2 CLR
23:43 7.6 °C 6.0 °C 1026.6 hPa Calm     90 % 0.0 mm 0.0 W/m2 CLR
23:48 7.4 °C 5.9 °C 1026.6 hPa Calm     90 % 0.0 mm 0.0 W/m2 CLR
23:53 7.4 °C 5.8 °C 1026.6 hPa Calm     90 % 0.0 mm 0.0 W/m2 CLR
23:58 7.3 °C 5.7 °C 1026.6 hPa Calm     90 % 0.0 mm 0.0 W/m2 CLR
Lo Temps de Massalio
Compliments of Weather Underground - 1.25 mb